Normanna, Texas
Current Conditions -  °F | °C
As of 12:15 PM on Thursday 18 Dec 2014 (Local Time) from KBEA Reporting Station
Overcast Overcast  
Wind Chill: 66°   Ceiling: 800
Heat Index: 66°   Visibility: 7mi
Dew Point: 63°   Wind: 9mph
Humidity: 88%   Direction: 40°NE
Pressure: 30.05"   Gusts: NA
Location:  28.53°N, 97.78°W
Report Text: KBEA 181815Z AUTO 04008KT 7SM BKN008 OVC026 19/17 A3005 RMK AO2 T01910171
Loading
Personal Weather Stations






























Interactive Weather Map New forecast layout! Learn more

10-Day Weather Forecast

Advertisements
Track Severe Weather on mobile